Terminal Aerodrome Forecast
Issued by NWS Sterling, VA

Home | Current Version | Previous Version | Text Only | Print | Product List | Glossary On
Versions: 1 2 3 4 5 6 7 8 9 10 11 12 13 14 15 16 17 18 19 20 21 22 23
000
FTUS41 KLWX 272054 AAB
TAFDCA
TAF AMD
KDCA 272054Z 2721/2818 30009G18KT P6SM BKN070
     FM272200 28009KT P6SM SCT070
     FM280200 32008KT P6SM FEW080
     FM281700 27004KT P6SM SKC=

USA.gov is the U.S. government's official web portal to all federal, state and local government web resources and services.